createdAt,value
2019-02-18T00:00:58.656Z,86.70
2019-02-18T00:03:34.490Z,86.70
2019-02-18T00:06:07.453Z,86.60
2019-02-18T00:08:40.449Z,86.40
2019-02-18T00:11:14.214Z,86.50
2019-02-18T00:13:47.399Z,86.50
2019-02-18T00:16:22.178Z,86.50
2019-02-18T00:18:56.290Z,86.40
2019-02-18T00:21:29.910Z,86.30
2019-02-18T00:24:03.633Z,86.40
2019-02-18T00:26:37.313Z,86.40
2019-02-18T00:29:09.877Z,86.60
2019-02-18T00:31:42.957Z,86.40
2019-02-18T00:34:16.304Z,86.40
2019-02-18T00:36:49.537Z,86.10
2019-02-18T00:39:23.772Z,86.00
2019-02-18T00:41:57.337Z,86.20
2019-02-18T00:44:30.333Z,86.40
2019-02-18T00:47:04.809Z,86.50
2019-02-18T00:49:38.244Z,86.60
2019-02-18T00:52:12.051Z,87.10
2019-02-18T00:54:46.481Z,87.60
2019-02-18T00:57:20.147Z,87.60
2019-02-18T00:59:53.556Z,88.00
2019-02-18T01:02:28.054Z,88.20
2019-02-18T01:05:00.987Z,88.10
2019-02-18T01:07:35.427Z,88.20
2019-02-18T01:10:09.485Z,88.30
2019-02-18T01:12:43.173Z,88.60
2019-02-18T01:15:17.267Z,88.80
2019-02-18T01:17:51.536Z,89.10
2019-02-18T01:20:24.951Z,89.40
2019-02-18T01:22:59.240Z,89.50
2019-02-18T01:25:33.026Z,89.90
2019-02-18T01:28:06.314Z,90.40
2019-02-18T01:30:39.350Z,90.70
2019-02-18T01:33:13.007Z,91.00
2019-02-18T01:35:47.212Z,90.90
2019-02-18T01:38:22.288Z,90.90
2019-02-18T01:40:56.091Z,90.80
2019-02-18T01:43:31.504Z,91.00
2019-02-18T01:46:05.246Z,91.00
2019-02-18T01:48:37.882Z,91.10
2019-02-18T01:51:10.708Z,91.60
2019-02-18T01:53:42.797Z,92.10
2019-02-18T01:56:15.229Z,92.50
2019-02-18T01:58:47.472Z,92.60
2019-02-18T02:01:19.644Z,93.00
2019-02-18T02:03:52.240Z,93.20
2019-02-18T02:06:24.834Z,93.40
2019-02-18T02:08:57.697Z,93.40
2019-02-18T02:11:31.090Z,93.30
2019-02-18T02:14:03.314Z,93.60
2019-02-18T02:16:35.871Z,93.70
2019-02-18T02:19:07.682Z,93.90
2019-02-18T02:21:40.037Z,94.00
2019-02-18T02:24:13.041Z,94.10
2019-02-18T02:26:45.709Z,93.90
2019-02-18T02:29:18.284Z,94.00
2019-02-18T02:31:53.373Z,94.30
2019-02-18T02:34:26.483Z,94.10
2019-02-18T02:36:58.461Z,93.90
2019-02-18T02:39:30.653Z,93.70
2019-02-18T02:42:04.129Z,93.70
2019-02-18T02:44:37.166Z,93.90
2019-02-18T02:47:09.592Z,94.00
2019-02-18T02:49:42.225Z,94.00
2019-02-18T02:52:14.712Z,94.10
2019-02-18T02:54:47.133Z,94.10
2019-02-18T02:57:19.502Z,94.20
2019-02-18T02:59:52.241Z,94.10
2019-02-18T03:02:24.411Z,93.80
2019-02-18T03:04:58.185Z,93.60
2019-02-18T03:07:30.808Z,93.50
2019-02-18T03:10:04.360Z,93.20
2019-02-18T03:12:37.114Z,93.20
2019-02-18T03:15:18.821Z,93.40
2019-02-18T03:17:51.273Z,93.50
2019-02-18T03:20:23.350Z,93.80
2019-02-18T03:22:56.028Z,94.10
2019-02-18T03:25:29.504Z,94.20
2019-02-18T03:28:13.107Z,94.40
2019-02-18T03:30:55.236Z,94.70
2019-02-18T03:33:40.217Z,95.00
2019-02-18T03:36:12.612Z,95.70
2019-02-18T03:38:45.316Z,96.20
2019-02-18T03:41:18.326Z,96.40
2019-02-18T03:43:50.686Z,96.70
2019-02-18T03:46:24.062Z,97.10
2019-02-18T03:48:58.972Z,97.20
2019-02-18T03:51:31.260Z,97.40
2019-02-18T03:54:04.427Z,97.40
2019-02-18T03:56:36.396Z,97.60
2019-02-18T03:59:11.143Z,98.00
2019-02-18T04:01:44.023Z,98.10
2019-02-18T04:04:16.362Z,97.80
2019-02-18T04:06:48.352Z,97.60
2019-02-18T04:09:20.783Z,97.70
2019-02-18T04:11:53.128Z,97.90
2019-02-18T04:14:25.585Z,98.00
2019-02-18T04:16:57.634Z,98.00
2019-02-18T04:19:29.420Z,98.20
2019-02-18T04:22:01.997Z,98.50
2019-02-18T04:24:34.101Z,98.70
2019-02-18T04:27:06.981Z,98.90
2019-02-18T04:29:41.726Z,99.10
2019-02-18T04:32:14.466Z,99.20
2019-02-18T04:34:47.597Z,99.20
2019-02-18T04:37:20.503Z,99.30
2019-02-18T04:39:52.778Z,99.50
2019-02-18T04:42:26.536Z,99.40
2019-02-18T04:44:58.902Z,99.30
2019-02-18T04:47:31.783Z,99.30
2019-02-18T04:50:03.820Z,99.30
2019-02-18T04:52:36.305Z,99.40
2019-02-18T04:55:09.274Z,99.40
2019-02-18T04:57:41.208Z,99.40
2019-02-18T05:00:13.979Z,99.70
2019-02-18T05:02:46.877Z,99.70
2019-02-18T05:05:19.175Z,99.70
2019-02-18T05:07:51.527Z,99.80
2019-02-18T05:10:23.505Z,99.90
2019-02-18T05:12:56.101Z,99.90
2019-02-18T05:15:28.416Z,99.60
2019-02-18T05:18:00.860Z,99.30
2019-02-18T05:20:33.782Z,99.00
2019-02-18T05:23:06.443Z,98.90
2019-02-18T05:25:38.900Z,98.80
2019-02-18T05:28:11.676Z,98.70
2019-02-18T05:30:44.734Z,98.80
2019-02-18T05:33:17.203Z,98.80
2019-02-18T05:35:50.932Z,98.60
2019-02-18T05:38:24.013Z,98.60
2019-02-18T05:40:56.724Z,98.50
2019-02-18T05:43:29.160Z,98.40
2019-02-18T05:46:02.523Z,98.30
2019-02-18T05:48:34.943Z,98.30
2019-02-18T05:51:07.507Z,98.30
2019-02-18T05:53:39.928Z,98.10
2019-02-18T05:56:12.571Z,97.80
2019-02-18T05:58:46.469Z,97.40
2019-02-18T06:01:20.316Z,97.10
2019-02-18T06:03:52.906Z,96.80
2019-02-18T06:06:27.962Z,96.70
2019-02-18T06:09:00.215Z,96.70
2019-02-18T06:11:33.121Z,96.70
2019-02-18T06:14:05.353Z,96.80
2019-02-18T06:16:38.266Z,96.70
2019-02-18T06:19:11.282Z,96.60
2019-02-18T06:21:44.177Z,96.60
2019-02-18T06:24:19.016Z,96.60
2019-02-18T06:26:52.791Z,96.60
2019-02-18T06:29:26.343Z,96.50
2019-02-18T06:32:00.255Z,96.50
2019-02-18T06:34:34.914Z,96.20
2019-02-18T06:37:08.956Z,96.10
2019-02-18T06:39:43.115Z,96.10
2019-02-18T06:42:16.939Z,95.90
2019-02-18T06:44:58.795Z,95.60
2019-02-18T06:47:31.544Z,95.50
2019-02-18T06:50:05.372Z,95.50
2019-02-18T06:52:38.619Z,95.50
2019-02-18T06:55:11.498Z,95.50
2019-02-18T06:58:03.384Z,95.60
2019-02-18T07:00:42.901Z,95.70
2019-02-18T07:03:42.498Z,95.90
2019-02-18T07:06:35.512Z,96.00
2019-02-18T07:09:29.074Z,95.80
2019-02-18T07:12:08.135Z,95.60
2019-02-18T07:14:41.871Z,95.40
2019-02-18T07:17:16.162Z,95.10
2019-02-18T07:19:49.797Z,94.90
2019-02-18T07:22:23.298Z,94.60
2019-02-18T07:24:57.066Z,94.50
2019-02-18T07:27:30.873Z,94.20
2019-02-18T07:30:04.132Z,94.00
2019-02-18T07:32:37.176Z,93.60
2019-02-18T07:35:10.288Z,93.20
2019-02-18T07:37:43.669Z,92.80
2019-02-18T07:40:18.741Z,92.50
2019-02-18T07:42:51.898Z,91.80
2019-02-18T07:45:25.254Z,91.30
2019-02-18T07:47:58.848Z,90.70
2019-02-18T07:50:32.127Z,89.80
2019-02-18T07:53:07.206Z,89.50
2019-02-18T07:55:39.911Z,89.20
2019-02-18T07:58:14.542Z,88.80
2019-02-18T08:00:47.934Z,88.30
2019-02-18T08:03:21.164Z,87.90
2019-02-18T08:05:55.274Z,87.30
2019-02-18T08:08:28.919Z,87.00
2019-02-18T08:11:03.530Z,86.60
2019-02-18T08:13:36.051Z,85.90
2019-02-18T08:16:09.036Z,85.40
2019-02-18T08:18:42.121Z,85.00
2019-02-18T08:21:15.148Z,84.10
2019-02-18T08:23:48.310Z,83.40
2019-02-18T08:26:21.515Z,82.90
2019-02-18T08:28:55.260Z,82.10
2019-02-18T08:31:28.791Z,81.70
2019-02-18T08:34:02.966Z,81.10
2019-02-18T08:36:36.043Z,80.60
2019-02-18T08:39:09.518Z,79.80
2019-02-18T08:41:42.577Z,79.30
2019-02-18T08:44:15.671Z,78.90
2019-02-18T08:46:48.126Z,78.70
2019-02-18T08:49:23.094Z,78.50
2019-02-18T08:51:56.158Z,78.40
2019-02-18T08:54:29.985Z,77.70
2019-02-18T08:57:04.398Z,77.50
2019-02-18T08:59:37.890Z,77.10
2019-02-18T09:02:11.247Z,76.70
2019-02-18T09:04:44.104Z,76.40
2019-02-18T09:07:17.338Z,76.20
2019-02-18T09:09:51.300Z,75.90
2019-02-18T09:12:24.667Z,75.60
2019-02-18T09:14:58.715Z,74.90
2019-02-18T09:17:32.360Z,74.80
2019-02-18T09:20:06.009Z,74.60
2019-02-18T09:22:48.368Z,73.80
2019-02-18T09:25:24.254Z,73.40
2019-02-18T09:27:57.542Z,73.20
2019-02-18T09:30:33.031Z,72.90
2019-02-18T09:33:06.881Z,72.60
2019-02-18T09:35:41.280Z,72.20
2019-02-18T09:38:24.379Z,71.90
2019-02-18T09:40:51.704Z,71.70
2019-02-18T09:43:25.370Z,71.50
2019-02-18T09:45:58.506Z,71.70
2019-02-18T09:48:31.861Z,71.80
2019-02-18T09:51:05.894Z,71.10
2019-02-18T09:53:39.277Z,70.90
2019-02-18T09:56:12.879Z,70.60
2019-02-18T09:58:45.651Z,70.60
2019-02-18T10:01:18.862Z,70.40
2019-02-18T10:03:52.762Z,70.40
2019-02-18T10:06:25.670Z,70.00
2019-02-18T10:08:58.452Z,69.80
2019-02-18T10:11:31.451Z,69.70
2019-02-18T10:14:04.873Z,70.10
2019-02-18T10:16:38.174Z,70.40
2019-02-18T10:19:12.688Z,70.30
2019-02-18T10:21:46.401Z,69.80
2019-02-18T10:24:19.625Z,69.70
2019-02-18T10:26:52.811Z,69.60
2019-02-18T10:29:25.983Z,69.40
2019-02-18T10:31:59.867Z,68.90
2019-02-18T10:34:32.888Z,68.60
2019-02-18T10:37:07.391Z,68.10
2019-02-18T10:39:40.418Z,67.90
2019-02-18T10:42:14.723Z,67.70
2019-02-18T10:44:48.450Z,67.70
2019-02-18T10:47:22.654Z,67.30
2019-02-18T10:49:56.181Z,67.50
2019-02-18T10:52:29.678Z,67.40
2019-02-18T10:55:03.033Z,67.00
2019-02-18T10:57:37.168Z,66.70
2019-02-18T11:00:12.296Z,65.70
2019-02-18T11:02:45.991Z,65.10
2019-02-18T11:05:19.755Z,63.80
2019-02-18T11:07:53.662Z,61.90
2019-02-18T11:10:26.933Z,60.60
2019-02-18T11:13:00.193Z,58.90
2019-02-18T11:15:34.105Z,57.70
2019-02-18T11:18:08.158Z,56.30
2019-02-18T11:20:42.457Z,55.10
2019-02-18T11:23:16.427Z,54.60
2019-02-18T11:25:50.306Z,53.70
2019-02-18T11:28:24.355Z,53.20
2019-02-18T11:30:58.493Z,52.80
2019-02-18T11:33:32.489Z,53.50
2019-02-18T11:36:06.290Z,54.60
2019-02-18T11:38:40.179Z,55.10
2019-02-18T11:41:14.872Z,54.20
2019-02-18T11:43:48.540Z,53.40
2019-02-18T11:46:21.969Z,54.30
2019-02-18T11:48:54.621Z,54.10
2019-02-18T11:51:27.757Z,53.30
2019-02-18T11:54:01.550Z,52.20
2019-02-18T11:56:35.150Z,53.20
2019-02-18T11:59:08.406Z,53.60
2019-02-18T12:01:41.743Z,52.80
2019-02-18T12:04:14.949Z,53.50
2019-02-18T12:06:49.259Z,53.30
2019-02-18T12:09:22.657Z,52.90
2019-02-18T12:11:56.687Z,52.90
2019-02-18T12:14:29.333Z,53.00
2019-02-18T12:17:02.718Z,53.00
2019-02-18T12:19:35.799Z,53.20
2019-02-18T12:22:12.084Z,53.30
2019-02-18T12:24:47.099Z,53.70
2019-02-18T12:27:22.361Z,53.00
2019-02-18T12:29:55.811Z,52.10
2019-02-18T12:32:29.095Z,51.80
2019-02-18T12:35:01.827Z,50.90
2019-02-18T12:37:36.483Z,50.70
2019-02-18T12:40:09.512Z,50.10
2019-02-18T12:42:45.336Z,49.70
2019-02-18T12:45:19.350Z,50.10
2019-02-18T12:47:52.169Z,50.40
2019-02-18T12:50:25.517Z,49.70
2019-02-18T12:52:59.540Z,49.90
2019-02-18T12:55:33.499Z,48.70
2019-02-18T12:58:06.963Z,49.90
2019-02-18T13:00:41.761Z,49.60
2019-02-18T13:03:14.519Z,49.40
2019-02-18T13:05:47.404Z,49.20
2019-02-18T13:08:24.995Z,48.90
2019-02-18T13:10:57.231Z,48.80
2019-02-18T13:13:31.431Z,49.30
2019-02-18T13:16:04.324Z,49.30
2019-02-18T13:18:36.977Z,48.70
2019-02-18T13:21:10.275Z,48.40
2019-02-18T13:23:42.858Z,47.40
2019-02-18T13:26:16.618Z,47.20
2019-02-18T13:28:50.829Z,47.90
2019-02-18T13:31:24.441Z,47.40
2019-02-18T13:33:57.441Z,47.50
2019-02-18T13:36:30.258Z,47.70
2019-02-18T13:39:04.019Z,47.50
2019-02-18T13:41:39.342Z,47.80
2019-02-18T13:44:12.281Z,47.70
2019-02-18T13:46:45.070Z,47.80
2019-02-18T13:49:19.563Z,47.70
2019-02-18T13:51:56.641Z,47.10
2019-02-18T13:54:28.192Z,46.70
2019-02-18T13:57:08.193Z,47.90
2019-02-18T13:59:36.177Z,47.10
2019-02-18T14:02:09.754Z,47.40
2019-02-18T14:04:43.258Z,47.40
2019-02-18T14:07:16.265Z,47.80
2019-02-18T14:09:49.851Z,47.80
2019-02-18T14:12:27.638Z,47.40
2019-02-18T14:15:01.038Z,47.90
2019-02-18T14:17:34.057Z,48.20
2019-02-18T14:20:10.272Z,48.30
2019-02-18T14:22:43.764Z,48.40
2019-02-18T14:25:17.267Z,48.30
2019-02-18T14:27:50.394Z,48.20
2019-02-18T14:30:24.340Z,48.20
2019-02-18T14:32:57.424Z,47.50
2019-02-18T14:35:31.194Z,47.70
2019-02-18T14:38:04.918Z,48.20
2019-02-18T14:40:39.413Z,48.20
2019-02-18T14:43:13.510Z,48.40
2019-02-18T14:45:50.321Z,48.70
2019-02-18T14:48:23.563Z,49.70
2019-02-18T14:50:57.149Z,49.50
2019-02-18T14:53:30.441Z,49.10
2019-02-18T14:56:04.893Z,49.20
2019-02-18T14:58:38.460Z,49.50
2019-02-18T15:01:12.901Z,49.40
2019-02-18T15:03:47.048Z,49.70
2019-02-18T15:06:20.776Z,50.40
2019-02-18T15:08:54.220Z,50.50
2019-02-18T15:11:29.628Z,50.30
2019-02-18T15:14:03.033Z,50.20
2019-02-18T15:16:36.453Z,50.10
2019-02-18T15:19:08.306Z,50.30
2019-02-18T15:21:40.210Z,50.30
2019-02-18T15:24:12.646Z,50.30
2019-02-18T15:26:45.081Z,50.40
2019-02-18T15:29:17.606Z,50.50
2019-02-18T15:31:49.777Z,50.50
2019-02-18T15:34:22.462Z,50.80
2019-02-18T15:36:54.147Z,50.90
2019-02-18T15:39:26.780Z,51.00
2019-02-18T15:41:59.981Z,51.90
2019-02-18T15:44:34.061Z,52.80
2019-02-18T15:47:06.387Z,54.20
2019-02-18T15:49:39.248Z,55.20
2019-02-18T15:52:14.206Z,56.60
2019-02-18T15:54:49.329Z,57.80
2019-02-18T15:57:28.533Z,58.60
2019-02-18T16:00:05.533Z,59.60
2019-02-18T16:02:42.317Z,60.00
2019-02-18T16:05:17.510Z,60.40
2019-02-18T16:07:53.825Z,60.60
2019-02-18T16:10:28.315Z,60.90
2019-02-18T16:13:03.125Z,61.10
2019-02-18T16:15:40.155Z,61.30
2019-02-18T16:18:15.355Z,61.50
2019-02-18T16:20:50.236Z,62.00
2019-02-18T16:23:24.609Z,62.20
2019-02-18T16:25:59.737Z,62.40
2019-02-18T16:28:35.831Z,62.90
2019-02-18T16:31:10.613Z,63.40
2019-02-18T16:33:45.195Z,63.30
2019-02-18T16:36:19.784Z,63.40
2019-02-18T16:38:54.219Z,62.30
2019-02-18T16:41:28.868Z,61.10
2019-02-18T16:44:02.790Z,60.90
2019-02-18T16:46:38.189Z,61.00
2019-02-18T16:49:13.100Z,61.30
2019-02-18T16:51:44.676Z,61.90
2019-02-18T16:54:16.518Z,62.60
2019-02-18T16:56:48.450Z,62.90
2019-02-18T16:59:20.272Z,63.20
2019-02-18T17:01:51.141Z,63.50
2019-02-18T17:04:21.825Z,63.90
2019-02-18T17:06:52.462Z,64.50
2019-02-18T17:09:23.307Z,64.90
2019-02-18T17:11:54.019Z,65.50
2019-02-18T17:14:24.669Z,65.90
2019-02-18T17:16:55.213Z,66.30
2019-02-18T17:19:25.798Z,66.40
2019-02-18T17:21:56.444Z,66.70
2019-02-18T17:24:27.027Z,67.00
2019-02-18T17:26:57.621Z,67.30
2019-02-18T17:29:28.243Z,67.40
2019-02-18T17:31:58.918Z,67.60
2019-02-18T17:34:29.518Z,67.70
2019-02-18T17:37:00.464Z,68.20
2019-02-18T17:39:31.214Z,68.40
2019-02-18T17:42:01.878Z,68.60
2019-02-18T17:44:33.486Z,68.70
2019-02-18T17:47:04.173Z,69.00
2019-02-18T17:49:34.819Z,69.20
2019-02-18T17:52:05.494Z,69.30
2019-02-18T17:54:36.154Z,69.60
2019-02-18T17:57:07.267Z,69.90
2019-02-18T17:59:37.837Z,70.10
2019-02-18T18:02:08.423Z,70.40
2019-02-18T18:04:39.329Z,70.60
2019-02-18T18:07:10.166Z,70.90
2019-02-18T18:09:40.996Z,71.10
2019-02-18T18:12:11.655Z,71.70
2019-02-18T18:14:42.370Z,71.80
2019-02-18T18:17:13.527Z,72.20
2019-02-18T18:19:45.705Z,72.60
2019-02-18T18:22:16.320Z,72.70
2019-02-18T18:24:47.889Z,72.80
2019-02-18T18:27:18.440Z,73.00
2019-02-18T18:29:49.436Z,73.30
2019-02-18T18:32:20.122Z,73.50
2019-02-18T18:34:50.937Z,73.90
2019-02-18T18:37:21.486Z,74.30
2019-02-18T18:39:52.180Z,74.90
2019-02-18T18:42:22.727Z,75.20
2019-02-18T18:44:53.506Z,75.20
2019-02-18T18:47:24.744Z,75.60
2019-02-18T18:49:56.459Z,76.00
2019-02-18T18:52:28.268Z,76.20
2019-02-18T18:54:59.441Z,76.40
2019-02-18T18:57:31.439Z,76.50
2019-02-18T19:00:04.890Z,76.80
2019-02-18T19:02:37.997Z,77.10
2019-02-18T19:05:09.147Z,77.40
2019-02-18T19:07:40.037Z,77.60
2019-02-18T19:10:11.874Z,77.80
2019-02-18T19:12:43.566Z,78.20
2019-02-18T19:15:14.506Z,78.60
2019-02-18T19:17:45.197Z,78.70
2019-02-18T19:20:17.322Z,78.90
2019-02-18T19:22:49.047Z,79.00
2019-02-18T19:25:19.787Z,79.20
2019-02-18T19:27:52.191Z,79.50
2019-02-18T19:30:25.235Z,79.80
2019-02-18T19:32:56.071Z,80.10
2019-02-18T19:35:29.876Z,80.50
2019-02-18T19:38:03.238Z,80.50
2019-02-18T19:40:37.450Z,80.30
2019-02-18T19:43:10.091Z,80.00
2019-02-18T19:45:42.273Z,79.80
2019-02-18T19:48:14.605Z,79.80
2019-02-18T19:50:46.932Z,79.80
2019-02-18T19:53:19.707Z,79.80
2019-02-18T19:55:54.478Z,79.80
2019-02-18T19:58:27.303Z,79.80
2019-02-18T20:01:00.037Z,79.80
2019-02-18T20:03:33.135Z,80.00
2019-02-18T20:06:06.530Z,80.00
2019-02-18T20:08:39.666Z,80.10
2019-02-18T20:11:12.642Z,80.30
2019-02-18T20:13:46.161Z,80.40
2019-02-18T20:16:20.664Z,80.70
2019-02-18T20:18:56.179Z,81.00
2019-02-18T20:21:31.494Z,81.20
2019-02-18T20:24:05.059Z,81.70
2019-02-18T20:26:45.122Z,82.10
2019-02-18T20:29:19.734Z,82.20
2019-02-18T20:31:56.906Z,82.10
2019-02-18T20:34:32.782Z,82.00
2019-02-18T20:37:06.659Z,81.90
2019-02-18T20:39:40.421Z,82.10
2019-02-18T20:42:17.014Z,82.00
2019-02-18T20:44:52.763Z,82.00
2019-02-18T20:47:26.639Z,82.20
2019-02-18T20:50:01.264Z,82.40
2019-02-18T20:52:35.598Z,82.20
2019-02-18T20:55:11.555Z,82.20
2019-02-18T20:57:47.532Z,82.20
2019-02-18T21:00:22.091Z,82.20
2019-02-18T21:02:57.231Z,82.60
2019-02-18T21:05:31.963Z,82.60
2019-02-18T21:08:05.368Z,82.40
2019-02-18T21:10:39.651Z,82.20
2019-02-18T21:13:14.613Z,82.00
2019-02-18T21:15:48.795Z,82.00
2019-02-18T21:18:23.142Z,82.20
2019-02-18T21:20:57.904Z,82.40
2019-02-18T21:23:31.898Z,82.70
2019-02-18T21:26:06.719Z,82.60
2019-02-18T21:28:42.654Z,82.70
2019-02-18T21:31:16.671Z,82.70
2019-02-18T21:33:50.399Z,82.80
2019-02-18T21:36:24.482Z,83.10
2019-02-18T21:39:01.431Z,83.20
2019-02-18T21:41:36.518Z,83.40
2019-02-18T21:44:10.697Z,84.00
2019-02-18T21:46:45.006Z,84.30
2019-02-18T21:49:18.627Z,84.30
2019-02-18T21:51:52.787Z,84.20
2019-02-18T21:54:26.322Z,84.20
2019-02-18T21:57:00.973Z,84.40
2019-02-18T21:59:35.539Z,84.80
2019-02-18T22:02:09.294Z,84.80
2019-02-18T22:04:42.798Z,84.90
2019-02-18T22:07:16.464Z,84.90
2019-02-18T22:09:49.780Z,85.00
2019-02-18T22:12:24.757Z,85.00
2019-02-18T22:15:00.493Z,85.00
2019-02-18T22:17:35.189Z,85.00
2019-02-18T22:20:09.798Z,85.00
2019-02-18T22:22:44.483Z,85.00
2019-02-18T22:25:19.171Z,85.10
2019-02-18T22:27:53.920Z,85.40
2019-02-18T22:30:28.821Z,85.30
2019-02-18T22:33:04.114Z,85.40
2019-02-18T22:35:38.558Z,85.50
2019-02-18T22:38:13.721Z,85.40
2019-02-18T22:40:47.307Z,85.30
2019-02-18T22:43:22.564Z,85.20
2019-02-18T22:45:56.859Z,85.20
2019-02-18T22:48:31.047Z,85.40
2019-02-18T22:51:05.628Z,85.90
2019-02-18T22:53:39.902Z,86.10
2019-02-18T22:56:15.169Z,86.00
2019-02-18T22:58:49.187Z,86.00
2019-02-18T23:01:24.036Z,86.30
2019-02-18T23:03:58.925Z,86.10
2019-02-18T23:06:32.475Z,86.00
2019-02-18T23:09:08.916Z,86.00
2019-02-18T23:11:43.318Z,85.60
2019-02-18T23:14:17.950Z,85.40
2019-02-18T23:16:52.746Z,85.40
2019-02-18T23:19:26.857Z,85.40
2019-02-18T23:22:01.002Z,85.50
2019-02-18T23:24:36.028Z,85.60
2019-02-18T23:27:10.615Z,85.70
2019-02-18T23:29:44.350Z,86.10
2019-02-18T23:32:18.796Z,86.30
2019-02-18T23:34:53.112Z,86.50
2019-02-18T23:37:27.139Z,86.60
2019-02-18T23:40:01.426Z,86.40
2019-02-18T23:42:36.106Z,86.40
2019-02-18T23:45:10.345Z,86.40
2019-02-18T23:47:43.921Z,86.30
2019-02-18T23:50:18.000Z,86.40
2019-02-18T23:52:52.881Z,86.40
2019-02-18T23:55:27.521Z,86.20
2019-02-18T23:58:01.572Z,85.60
